Details for AirAsia Indonesia at WARR




Go Back


Latest METAR
Local Time

WARR 221000Z 12012KT 9999 FEW020 29/22 Q1011 NOSIG
22/09/2018, 17:58:17

Description
Results
AirAsia Indonesia Logo
Number of Pilots based at WARR
0 Pilots Based here
Number of AirAsia Indonesia Flights Departed from WARR
0 Flights Departed
Number of AirAsia Indonesia Flights Arrived at WARR
0 Flights Arrived
Number of AirAsia Indonesia Schedules Departing from WARR
0 Schedules
Number of AirAsia Indonesia Schedules Arriving at WARR
0 Schedules
Number of AirAsia Indonesia Schedules Departing from WARR availible today
0 Schedules Today
Number of AirAsia Indonesia Schedules Arriving at WARR availible today
0 Schedules Today
Average Landing Rate at WARR
0 fpm
AirAsia Indonesia Average Landing Rate at WARR
0 fpm
Total Fuel Purchased at WARR by AirAsia Indonesia
0.00 kgs / 0.00 lbs

Pilots Based at WARR


Pilot ID
Pilot Name
Pilot Rank
No. of Flights
No. of Flying Hours
There are no pilots assigned to this hub!   Will you be the first?
Content